sensor_id;sensor_type;location;lat;lon;timestamp;P1;durP1;ratioP1;P2;durP2;ratioP2
5951;SDS011;3001;42.622;23.194;2022-11-23T00:01:13;6.20;;;5.80;;
5951;SDS011;3001;42.622;23.194;2022-11-23T00:03:42;5.27;;;4.87;;
5951;SDS011;3001;42.622;23.194;2022-11-23T00:06:09;4.33;;;4.00;;
5951;SDS011;3001;42.622;23.194;2022-11-23T00:08:36;4.63;;;3.67;;
5951;SDS011;3001;42.622;23.194;2022-11-23T00:11:05;3.73;;;3.00;;
5951;SDS011;3001;42.622;23.194;2022-11-23T00:13:32;2.20;;;2.10;;
5951;SDS011;3001;42.622;23.194;2022-11-23T00:16:00;2.33;;;2.13;;
5951;SDS011;3001;42.622;23.194;2022-11-23T00:18:28;2.67;;;2.43;;
5951;SDS011;3001;42.622;23.194;2022-11-23T00:20:55;7.23;;;3.70;;
5951;SDS011;3001;42.622;23.194;2022-11-23T00:23:22;4.07;;;2.70;;
5951;SDS011;3001;42.622;23.194;2022-11-23T00:25:49;3.33;;;3.10;;
5951;SDS011;3001;42.622;23.194;2022-11-23T00:28:17;7.60;;;6.00;;
5951;SDS011;3001;42.622;23.194;2022-11-23T00:30:47;21.87;;;15.40;;
5951;SDS011;3001;42.622;23.194;2022-11-23T00:33:14;24.63;;;15.70;;
5951;SDS011;3001;42.622;23.194;2022-11-23T00:35:41;23.80;;;14.13;;
5951;SDS011;3001;42.622;23.194;2022-11-23T00:38:08;21.33;;;13.93;;
5951;SDS011;3001;42.622;23.194;2022-11-23T00:40:34;18.90;;;12.63;;
5951;SDS011;3001;42.622;23.194;2022-11-23T00:43:01;14.97;;;11.07;;
5951;SDS011;3001;42.622;23.194;2022-11-23T00:45:29;16.67;;;10.70;;
5951;SDS011;3001;42.622;23.194;2022-11-23T00:47:56;16.07;;;10.53;;
5951;SDS011;3001;42.622;23.194;2022-11-23T00:50:23;12.80;;;9.23;;
5951;SDS011;3001;42.622;23.194;2022-11-23T00:52:49;11.80;;;9.60;;
5951;SDS011;3001;42.622;23.194;2022-11-23T00:55:16;18.70;;;12.93;;
5951;SDS011;3001;42.622;23.194;2022-11-23T00:57:43;20.50;;;11.83;;
5951;SDS011;3001;42.622;23.194;2022-11-23T01:00:10;18.57;;;12.33;;
5951;SDS011;3001;42.622;23.194;2022-11-23T01:02:39;21.13;;;13.27;;
5951;SDS011;3001;42.622;23.194;2022-11-23T01:05:05;15.53;;;11.30;;
5951;SDS011;3001;42.622;23.194;2022-11-23T01:07:32;17.40;;;10.20;;
5951;SDS011;3001;42.622;23.194;2022-11-23T01:09:59;8.10;;;7.23;;
5951;SDS011;3001;42.622;23.194;2022-11-23T01:12:27;6.63;;;5.60;;
5951;SDS011;3001;42.622;23.194;2022-11-23T01:14:54;6.80;;;5.67;;
5951;SDS011;3001;42.622;23.194;2022-11-23T01:17:20;8.37;;;7.57;;
5951;SDS011;3001;42.622;23.194;2022-11-23T01:19:49;14.57;;;10.83;;
5951;SDS011;3001;42.622;23.194;2022-11-23T01:22:15;12.23;;;11.10;;
5951;SDS011;3001;42.622;23.194;2022-11-23T01:24:44;11.27;;;9.77;;
5951;SDS011;3001;42.622;23.194;2022-11-23T01:27:11;9.53;;;8.57;;
5951;SDS011;3001;42.622;23.194;2022-11-23T01:29:37;9.80;;;8.30;;
5951;SDS011;3001;42.622;23.194;2022-11-23T01:32:04;14.47;;;8.60;;
5951;SDS011;3001;42.622;23.194;2022-11-23T01:34:31;10.13;;;9.13;;
5951;SDS011;3001;42.622;23.194;2022-11-23T01:36:59;9.87;;;8.87;;
5951;SDS011;3001;42.622;23.194;2022-11-23T01:39:26;12.20;;;8.77;;
5951;SDS011;3001;42.622;23.194;2022-11-23T01:41:53;9.63;;;8.73;;
5951;SDS011;3001;42.622;23.194;2022-11-23T01:44:22;10.60;;;8.17;;
5951;SDS011;3001;42.622;23.194;2022-11-23T01:46:50;8.70;;;8.00;;
5951;SDS011;3001;42.622;23.194;2022-11-23T01:49:17;6.80;;;6.23;;
5951;SDS011;3001;42.622;23.194;2022-11-23T01:51:44;8.40;;;6.03;;
5951;SDS011;3001;42.622;23.194;2022-11-23T01:54:16;5.13;;;4.20;;
5951;SDS011;3001;42.622;23.194;2022-11-23T01:56:49;5.50;;;5.07;;
5951;SDS011;3001;42.622;23.194;2022-11-23T01:59:19;5.37;;;4.97;;
5951;SDS011;3001;42.622;23.194;2022-11-23T02:01:48;4.97;;;4.47;;
5951;SDS011;3001;42.622;23.194;2022-11-23T02:04:16;4.87;;;4.50;;
5951;SDS011;3001;42.622;23.194;2022-11-23T02:06:48;4.23;;;3.83;;
5951;SDS011;3001;42.622;23.194;2022-11-23T02:09:17;4.37;;;3.97;;
5951;SDS011;3001;42.622;23.194;2022-11-23T02:11:45;4.80;;;4.40;;
5951;SDS011;3001;42.622;23.194;2022-11-23T02:14:11;4.97;;;4.50;;
5951;SDS011;3001;42.622;23.194;2022-11-23T02:16:39;4.67;;;4.27;;
5951;SDS011;3001;42.622;23.194;2022-11-23T02:19:06;4.90;;;4.50;;
5951;SDS011;3001;42.622;23.194;2022-11-23T02:21:37;5.70;;;5.20;;
5951;SDS011;3001;42.622;23.194;2022-11-23T02:24:06;4.57;;;4.10;;
5951;SDS011;3001;42.622;23.194;2022-11-23T02:26:39;5.13;;;4.80;;
5951;SDS011;3001;42.622;23.194;2022-11-23T02:29:07;5.10;;;4.67;;
5951;SDS011;3001;42.622;23.194;2022-11-23T02:31:37;4.50;;;4.17;;
5951;SDS011;3001;42.622;23.194;2022-11-23T02:34:03;3.73;;;3.47;;
5951;SDS011;3001;42.622;23.194;2022-11-23T02:36:33;4.47;;;4.17;;
5951;SDS011;3001;42.622;23.194;2022-11-23T02:39:04;4.50;;;4.30;;
5951;SDS011;3001;42.622;23.194;2022-11-23T02:41:34;3.83;;;3.50;;
5951;SDS011;3001;42.622;23.194;2022-11-23T02:44:03;4.27;;;3.97;;
5951;SDS011;3001;42.622;23.194;2022-11-23T02:46:34;4.17;;;3.87;;
5951;SDS011;3001;42.622;23.194;2022-11-23T02:49:01;4.10;;;3.80;;
5951;SDS011;3001;42.622;23.194;2022-11-23T02:51:27;3.90;;;3.70;;
5951;SDS011;3001;42.622;23.194;2022-11-23T02:53:54;7.63;;;4.37;;
5951;SDS011;3001;42.622;23.194;2022-11-23T02:56:21;3.60;;;3.40;;
5951;SDS011;3001;42.622;23.194;2022-11-23T02:58:48;3.57;;;3.37;;
5951;SDS011;3001;42.622;23.194;2022-11-23T03:01:16;2.97;;;2.77;;
5951;SDS011;3001;42.622;23.194;2022-11-23T03:03:43;6.93;;;3.27;;
5951;SDS011;3001;42.622;23.194;2022-11-23T03:06:09;2.93;;;2.73;;
5951;SDS011;3001;42.622;23.194;2022-11-23T03:08:36;3.90;;;2.40;;
5951;SDS011;3001;42.622;23.194;2022-11-23T03:11:03;3.77;;;2.97;;
5951;SDS011;3001;42.622;23.194;2022-11-23T03:13:30;3.67;;;3.40;;
5951;SDS011;3001;42.622;23.194;2022-11-23T03:15:57;3.60;;;3.40;;
5951;SDS011;3001;42.622;23.194;2022-11-23T03:18:25;61.50;;;9.10;;
5951;SDS011;3001;42.622;23.194;2022-11-23T03:20:52;13.50;;;8.50;;
5951;SDS011;3001;42.622;23.194;2022-11-23T03:23:19;23.23;;;9.70;;
5951;SDS011;3001;42.622;23.194;2022-11-23T03:25:53;11.27;;;9.23;;
5951;SDS011;3001;42.622;23.194;2022-11-23T03:28:20;11.30;;;9.57;;
5951;SDS011;3001;42.622;23.194;2022-11-23T03:30:47;8.57;;;7.67;;
5951;SDS011;3001;42.622;23.194;2022-11-23T03:33:14;8.90;;;8.20;;
5951;SDS011;3001;42.622;23.194;2022-11-23T03:35:42;8.37;;;7.77;;
5951;SDS011;3001;42.622;23.194;2022-11-23T03:38:09;8.00;;;7.47;;
5951;SDS011;3001;42.622;23.194;2022-11-23T03:40:36;8.77;;;7.87;;
5951;SDS011;3001;42.622;23.194;2022-11-23T03:43:03;8.07;;;7.43;;
5951;SDS011;3001;42.622;23.194;2022-11-23T03:45:30;6.03;;;5.60;;
5951;SDS011;3001;42.622;23.194;2022-11-23T03:47:57;5.70;;;5.23;;
5951;SDS011;3001;42.622;23.194;2022-11-23T03:50:23;4.17;;;3.87;;
5951;SDS011;3001;42.622;23.194;2022-11-23T03:52:51;1.10;;;1.10;;
5951;SDS011;3001;42.622;23.194;2022-11-23T03:55:18;1.30;;;1.00;;
5951;SDS011;3001;42.622;23.194;2022-11-23T03:57:46;1.40;;;0.90;;
5951;SDS011;3001;42.622;23.194;2022-11-23T04:00:13;0.80;;;0.80;;
5951;SDS011;3001;42.622;23.194;2022-11-23T04:02:41;0.80;;;0.80;;
5951;SDS011;3001;42.622;23.194;2022-11-23T04:05:08;0.90;;;0.90;;
5951;SDS011;3001;42.622;23.194;2022-11-23T04:07:35;0.80;;;0.80;;
5951;SDS011;3001;42.622;23.194;2022-11-23T04:10:07;2.43;;;1.20;;
5951;SDS011;3001;42.622;23.194;2022-11-23T04:12:34;0.70;;;0.70;;
5951;SDS011;3001;42.622;23.194;2022-11-23T04:15:01;2.00;;;0.90;;
5951;SDS011;3001;42.622;23.194;2022-11-23T04:17:29;1.23;;;1.23;;
5951;SDS011;3001;42.622;23.194;2022-11-23T04:19:55;1.00;;;0.87;;
5951;SDS011;3001;42.622;23.194;2022-11-23T04:22:22;0.60;;;0.60;;
5951;SDS011;3001;42.622;23.194;2022-11-23T04:24:49;0.60;;;0.60;;
5951;SDS011;3001;42.622;23.194;2022-11-23T04:27:17;1.60;;;0.40;;
5951;SDS011;3001;42.622;23.194;2022-11-23T04:29:44;0.30;;;0.30;;
5951;SDS011;3001;42.622;23.194;2022-11-23T04:32:10;0.50;;;0.50;;
5951;SDS011;3001;42.622;23.194;2022-11-23T04:34:37;0.93;;;0.40;;
5951;SDS011;3001;42.622;23.194;2022-11-23T04:37:04;1.63;;;1.50;;
5951;SDS011;3001;42.622;23.194;2022-11-23T04:39:30;1.47;;;0.90;;
5951;SDS011;3001;42.622;23.194;2022-11-23T04:41:57;0.50;;;0.50;;
5951;SDS011;3001;42.622;23.194;2022-11-23T04:44:25;0.67;;;0.67;;
5951;SDS011;3001;42.622;23.194;2022-11-23T04:46:52;2.70;;;0.63;;
5951;SDS011;3001;42.622;23.194;2022-11-23T04:49:19;1.07;;;0.50;;
5951;SDS011;3001;42.622;23.194;2022-11-23T04:51:45;2.40;;;2.20;;
5951;SDS011;3001;42.622;23.194;2022-11-23T04:54:12;3.17;;;2.43;;
5951;SDS011;3001;42.622;23.194;2022-11-23T04:56:39;4.77;;;2.80;;
5951;SDS011;3001;42.622;23.194;2022-11-23T04:59:06;2.13;;;1.40;;
5951;SDS011;3001;42.622;23.194;2022-11-23T05:01:34;1.20;;;1.20;;
5951;SDS011;3001;42.622;23.194;2022-11-23T05:04:01;1.70;;;1.60;;
5951;SDS011;3001;42.622;23.194;2022-11-23T05:06:27;1.30;;;1.20;;
5951;SDS011;3001;42.622;23.194;2022-11-23T05:08:54;1.20;;;0.80;;
5951;SDS011;3001;42.622;23.194;2022-11-23T05:11:21;1.73;;;0.90;;
5951;SDS011;3001;42.622;23.194;2022-11-23T05:13:47;2.73;;;1.23;;
5951;SDS011;3001;42.622;23.194;2022-11-23T05:16:14;1.33;;;1.23;;
5951;SDS011;3001;42.622;23.194;2022-11-23T05:18:42;1.57;;;1.47;;
5951;SDS011;3001;42.622;23.194;2022-11-23T05:21:09;3.23;;;1.20;;
5951;SDS011;3001;42.622;23.194;2022-11-23T05:23:36;1.53;;;1.17;;
5951;SDS011;3001;42.622;23.194;2022-11-23T05:26:03;3.37;;;1.77;;
5951;SDS011;3001;42.622;23.194;2022-11-23T05:28:29;4.20;;;1.90;;
5951;SDS011;3001;42.622;23.194;2022-11-23T05:30:56;1.90;;;1.77;;
5951;SDS011;3001;42.622;23.194;2022-11-23T05:33:23;4.23;;;2.80;;
5951;SDS011;3001;42.622;23.194;2022-11-23T05:35:51;3.57;;;3.13;;
5951;SDS011;3001;42.622;23.194;2022-11-23T05:38:18;8.60;;;3.10;;
5951;SDS011;3001;42.622;23.194;2022-11-23T05:40:44;5.57;;;3.70;;
5951;SDS011;3001;42.622;23.194;2022-11-23T05:43:11;4.57;;;3.37;;
5951;SDS011;3001;42.622;23.194;2022-11-23T05:45:38;5.77;;;3.77;;
5951;SDS011;3001;42.622;23.194;2022-11-23T05:48:05;6.80;;;4.30;;
5951;SDS011;3001;42.622;23.194;2022-11-23T05:50:31;3.30;;;2.90;;
5951;SDS011;3001;42.622;23.194;2022-11-23T05:52:59;5.73;;;3.70;;
5951;SDS011;3001;42.622;23.194;2022-11-23T05:55:26;3.17;;;2.97;;
5951;SDS011;3001;42.622;23.194;2022-11-23T05:57:53;3.57;;;3.37;;
5951;SDS011;3001;42.622;23.194;2022-11-23T06:00:20;3.30;;;3.10;;
5951;SDS011;3001;42.622;23.194;2022-11-23T06:02:47;2.57;;;2.40;;
5951;SDS011;3001;42.622;23.194;2022-11-23T06:05:13;5.00;;;2.57;;
5951;SDS011;3001;42.622;23.194;2022-11-23T06:07:40;2.40;;;2.23;;
5951;SDS011;3001;42.622;23.194;2022-11-23T06:10:09;2.40;;;2.20;;
5951;SDS011;3001;42.622;23.194;2022-11-23T06:12:36;2.40;;;2.30;;
5951;SDS011;3001;42.622;23.194;2022-11-23T06:15:03;3.50;;;2.07;;
5951;SDS011;3001;42.622;23.194;2022-11-23T06:17:31;2.73;;;1.93;;
5951;SDS011;3001;42.622;23.194;2022-11-23T06:19:57;3.97;;;2.40;;
5951;SDS011;3001;42.622;23.194;2022-11-23T06:22:24;2.50;;;2.30;;
5951;SDS011;3001;42.622;23.194;2022-11-23T06:24:51;5.07;;;2.07;;
5951;SDS011;3001;42.622;23.194;2022-11-23T06:27:19;1.60;;;1.50;;
5951;SDS011;3001;42.622;23.194;2022-11-23T06:29:46;1.63;;;1.53;;
5951;SDS011;3001;42.622;23.194;2022-11-23T06:32:13;2.37;;;1.80;;
5951;SDS011;3001;42.622;23.194;2022-11-23T06:34:40;3.07;;;2.83;;
5951;SDS011;3001;42.622;23.194;2022-11-23T06:37:06;2.33;;;2.13;;
5951;SDS011;3001;42.622;23.194;2022-11-23T06:39:33;6.27;;;2.10;;
5951;SDS011;3001;42.622;23.194;2022-11-23T06:42:00;2.33;;;2.20;;
5951;SDS011;3001;42.622;23.194;2022-11-23T06:44:28;3.83;;;1.80;;
5951;SDS011;3001;42.622;23.194;2022-11-23T06:46:55;2.23;;;2.13;;
5951;SDS011;3001;42.622;23.194;2022-11-23T06:49:22;3.10;;;1.90;;
5951;SDS011;3001;42.622;23.194;2022-11-23T06:51:50;3.17;;;1.80;;
5951;SDS011;3001;42.622;23.194;2022-11-23T06:54:17;3.50;;;3.17;;
5951;SDS011;3001;42.622;23.194;2022-11-23T06:56:43;2.50;;;1.87;;
5951;SDS011;3001;42.622;23.194;2022-11-23T06:59:10;3.37;;;2.00;;
5951;SDS011;3001;42.622;23.194;2022-11-23T07:01:38;3.33;;;2.50;;
5951;SDS011;3001;42.622;23.194;2022-11-23T07:04:05;2.70;;;2.03;;
5951;SDS011;3001;42.622;23.194;2022-11-23T07:06:32;4.90;;;2.47;;
5951;SDS011;3001;42.622;23.194;2022-11-23T07:08:59;2.40;;;1.60;;
5951;SDS011;3001;42.622;23.194;2022-11-23T07:11:27;2.23;;;2.13;;
5951;SDS011;3001;42.622;23.194;2022-11-23T07:13:54;3.07;;;1.83;;
5951;SDS011;3001;42.622;23.194;2022-11-23T07:16:20;2.60;;;1.87;;
5951;SDS011;3001;42.622;23.194;2022-11-23T07:18:49;2.03;;;1.93;;
5951;SDS011;3001;42.622;23.194;2022-11-23T07:21:16;5.17;;;2.23;;
5951;SDS011;3001;42.622;23.194;2022-11-23T07:23:42;3.13;;;2.27;;
5951;SDS011;3001;42.622;23.194;2022-11-23T07:26:09;2.20;;;2.00;;
5951;SDS011;3001;42.622;23.194;2022-11-23T07:28:36;2.13;;;2.03;;
5951;SDS011;3001;42.622;23.194;2022-11-23T07:31:03;2.27;;;2.17;;
5951;SDS011;3001;42.622;23.194;2022-11-23T07:33:29;2.70;;;2.50;;
5951;SDS011;3001;42.622;23.194;2022-11-23T07:35:59;2.97;;;2.87;;
5951;SDS011;3001;42.622;23.194;2022-11-23T07:38:26;2.63;;;2.53;;
5951;SDS011;3001;42.622;23.194;2022-11-23T07:40:53;2.00;;;1.90;;
5951;SDS011;3001;42.622;23.194;2022-11-23T07:43:20;3.10;;;2.90;;
5951;SDS011;3001;42.622;23.194;2022-11-23T07:45:46;3.33;;;3.13;;
5951;SDS011;3001;42.622;23.194;2022-11-23T07:48:13;2.03;;;1.70;;
5951;SDS011;3001;42.622;23.194;2022-11-23T07:50:40;2.03;;;1.93;;
5951;SDS011;3001;42.622;23.194;2022-11-23T07:53:08;1.83;;;1.83;;
5951;SDS011;3001;42.622;23.194;2022-11-23T07:55:35;2.27;;;1.67;;
5951;SDS011;3001;42.622;23.194;2022-11-23T07:58:02;2.10;;;1.70;;
5951;SDS011;3001;42.622;23.194;2022-11-23T08:00:30;1.50;;;1.50;;
5951;SDS011;3001;42.622;23.194;2022-11-23T08:02:56;1.93;;;1.63;;
5951;SDS011;3001;42.622;23.194;2022-11-23T08:05:24;5.40;;;2.17;;
5951;SDS011;3001;42.622;23.194;2022-11-23T08:07:56;1.37;;;1.37;;
5951;SDS011;3001;42.622;23.194;2022-11-23T08:10:25;1.87;;;1.67;;
5951;SDS011;3001;42.622;23.194;2022-11-23T08:12:52;2.50;;;1.87;;
5951;SDS011;3001;42.622;23.194;2022-11-23T08:15:21;1.23;;;1.23;;
5951;SDS011;3001;42.622;23.194;2022-11-23T08:17:48;5.17;;;4.63;;
5951;SDS011;3001;42.622;23.194;2022-11-23T08:20:20;2.17;;;2.07;;
5951;SDS011;3001;42.622;23.194;2022-11-23T08:22:46;1.37;;;1.27;;
5951;SDS011;3001;42.622;23.194;2022-11-23T08:25:13;2.70;;;2.07;;
5951;SDS011;3001;42.622;23.194;2022-11-23T08:27:41;2.33;;;1.70;;
5951;SDS011;3001;42.622;23.194;2022-11-23T08:30:08;1.17;;;1.10;;
5951;SDS011;3001;42.622;23.194;2022-11-23T08:32:35;1.30;;;1.20;;
5951;SDS011;3001;42.622;23.194;2022-11-23T08:35:02;1.37;;;1.27;;
5951;SDS011;3001;42.622;23.194;2022-11-23T08:37:29;0.97;;;0.97;;
5951;SDS011;3001;42.622;23.194;2022-11-23T08:39:56;1.27;;;1.27;;
5951;SDS011;3001;42.622;23.194;2022-11-23T08:42:23;2.03;;;1.50;;
5951;SDS011;3001;42.622;23.194;2022-11-23T08:44:51;0.90;;;0.90;;
5951;SDS011;3001;42.622;23.194;2022-11-23T08:47:17;0.50;;;0.50;;
5951;SDS011;3001;42.622;23.194;2022-11-23T08:49:44;0.63;;;0.50;;
5951;SDS011;3001;42.622;23.194;2022-11-23T08:52:11;1.03;;;0.90;;
5951;SDS011;3001;42.622;23.194;2022-11-23T08:54:38;0.93;;;0.80;;
5951;SDS011;3001;42.622;23.194;2022-11-23T08:57:05;0.90;;;0.90;;
5951;SDS011;3001;42.622;23.194;2022-11-23T08:59:31;0.70;;;0.70;;
5951;SDS011;3001;42.622;23.194;2022-11-23T09:02:00;0.73;;;0.73;;
5951;SDS011;3001;42.622;23.194;2022-11-23T09:04:27;1.10;;;1.10;;
5951;SDS011;3001;42.622;23.194;2022-11-23T09:06:55;0.70;;;0.70;;
5951;SDS011;3001;42.622;23.194;2022-11-23T09:09:21;0.97;;;0.90;;
5951;SDS011;3001;42.622;23.194;2022-11-23T09:11:49;2.30;;;2.10;;
5951;SDS011;3001;42.622;23.194;2022-11-23T09:14:16;1.90;;;1.80;;
5951;SDS011;3001;42.622;23.194;2022-11-23T09:16:43;0.60;;;0.60;;
5951;SDS011;3001;42.622;23.194;2022-11-23T09:19:12;0.70;;;0.70;;
5951;SDS011;3001;42.622;23.194;2022-11-23T09:21:39;0.90;;;0.70;;
5951;SDS011;3001;42.622;23.194;2022-11-23T09:24:08;2.10;;;0.90;;
5951;SDS011;3001;42.622;23.194;2022-11-23T09:26:35;0.87;;;0.87;;
5951;SDS011;3001;42.622;23.194;2022-11-23T09:29:02;0.80;;;0.80;;
5951;SDS011;3001;42.622;23.194;2022-11-23T09:31:29;6.00;;;1.23;;
5951;SDS011;3001;42.622;23.194;2022-11-23T09:33:56;1.80;;;0.70;;
5951;SDS011;3001;42.622;23.194;2022-11-23T09:36:24;1.57;;;1.47;;
5951;SDS011;3001;42.622;23.194;2022-11-23T09:38:51;3.33;;;1.10;;
5951;SDS011;3001;42.622;23.194;2022-11-23T09:41:25;3.50;;;1.20;;
5951;SDS011;3001;42.622;23.194;2022-11-23T09:44:09;7.27;;;1.50;;
5951;SDS011;3001;42.622;23.194;2022-11-23T09:46:47;3.47;;;2.30;;
5951;SDS011;3001;42.622;23.194;2022-11-23T09:49:27;2.90;;;2.70;;
5951;SDS011;3001;42.622;23.194;2022-11-23T09:52:06;2.53;;;1.27;;
5951;SDS011;3001;42.622;23.194;2022-11-23T09:54:39;3.67;;;2.17;;
5951;SDS011;3001;42.622;23.194;2022-11-23T09:57:09;3.10;;;2.27;;
5951;SDS011;3001;42.622;23.194;2022-11-23T09:59:38;1.97;;;1.20;;
5951;SDS011;3001;42.622;23.194;2022-11-23T10:02:09;1.17;;;1.07;;
5951;SDS011;3001;42.622;23.194;2022-11-23T10:04:45;0.80;;;0.80;;
5951;SDS011;3001;42.622;23.194;2022-11-23T10:07:17;2.67;;;0.83;;
5951;SDS011;3001;42.622;23.194;2022-11-23T10:09:53;0.90;;;0.70;;
5951;SDS011;3001;42.622;23.194;2022-11-23T10:12:29;1.00;;;1.00;;
5951;SDS011;3001;42.622;23.194;2022-11-23T10:15:10;0.90;;;0.90;;
5951;SDS011;3001;42.622;23.194;2022-11-23T10:17:48;2.07;;;1.90;;
5951;SDS011;3001;42.622;23.194;2022-11-23T10:20:29;1.07;;;0.60;;
5951;SDS011;3001;42.622;23.194;2022-11-23T10:23:10;3.23;;;2.57;;
5951;SDS011;3001;42.622;23.194;2022-11-23T10:25:41;1.50;;;0.50;;
5951;SDS011;3001;42.622;23.194;2022-11-23T10:28:13;1.70;;;1.60;;
5951;SDS011;3001;42.622;23.194;2022-11-23T10:30:41;1.27;;;0.63;;
5951;SDS011;3001;42.622;23.194;2022-11-23T10:33:15;0.57;;;0.40;;
5951;SDS011;3001;42.622;23.194;2022-11-23T10:35:48;0.40;;;0.40;;
5951;SDS011;3001;42.622;23.194;2022-11-23T10:38:17;0.87;;;0.70;;
5951;SDS011;3001;42.622;23.194;2022-11-23T10:40:45;4.57;;;0.47;;
5951;SDS011;3001;42.622;23.194;2022-11-23T10:43:24;2.20;;;0.93;;
5951;SDS011;3001;42.622;23.194;2022-11-23T10:45:53;2.17;;;2.07;;
5951;SDS011;3001;42.622;23.194;2022-11-23T10:49:11;2.13;;;0.97;;
5951;SDS011;3001;42.622;23.194;2022-11-23T10:51:47;0.70;;;0.50;;
5951;SDS011;3001;42.622;23.194;2022-11-23T10:54:20;0.40;;;0.40;;
5951;SDS011;3001;42.622;23.194;2022-11-23T10:56:50;0.50;;;0.50;;
5951;SDS011;3001;42.622;23.194;2022-11-23T10:59:25;0.77;;;0.60;;
5951;SDS011;3001;42.622;23.194;2022-11-23T11:04:44;1.47;;;0.40;;
5951;SDS011;3001;42.622;23.194;2022-11-23T11:07:17;1.37;;;0.70;;
5951;SDS011;3001;42.622;23.194;2022-11-23T11:09:48;0.80;;;0.60;;
5951;SDS011;3001;42.622;23.194;2022-11-23T11:12:19;0.73;;;0.73;;
5951;SDS011;3001;42.622;23.194;2022-11-23T11:15:00;0.57;;;0.57;;
5951;SDS011;3001;42.622;23.194;2022-11-23T11:17:31;1.00;;;1.00;;
5951;SDS011;3001;42.622;23.194;2022-11-23T11:19:59;0.80;;;0.80;;
5951;SDS011;3001;42.622;23.194;2022-11-23T11:22:27;2.00;;;1.50;;
5951;SDS011;3001;42.622;23.194;2022-11-23T11:24:59;2.10;;;1.07;;
5951;SDS011;3001;42.622;23.194;2022-11-23T11:27:28;0.50;;;0.50;;
5951;SDS011;3001;42.622;23.194;2022-11-23T11:29:56;2.23;;;2.00;;
5951;SDS011;3001;42.622;23.194;2022-11-23T11:32:29;1.27;;;1.20;;
5951;SDS011;3001;42.622;23.194;2022-11-23T11:35:12;1.23;;;1.23;;
5951;SDS011;3001;42.622;23.194;2022-11-23T11:37:42;0.83;;;0.83;;
5951;SDS011;3001;42.622;23.194;2022-11-23T11:40:15;1.13;;;1.10;;
5951;SDS011;3001;42.622;23.194;2022-11-23T11:42:47;0.57;;;0.57;;
5951;SDS011;3001;42.622;23.194;2022-11-23T11:45:20;0.50;;;0.50;;
5951;SDS011;3001;42.622;23.194;2022-11-23T11:47:52;1.27;;;1.27;;
5951;SDS011;3001;42.622;23.194;2022-11-23T11:50:23;0.67;;;0.67;;
5951;SDS011;3001;42.622;23.194;2022-11-23T11:52:54;1.03;;;0.50;;
5951;SDS011;3001;42.622;23.194;2022-11-23T11:55:26;3.00;;;2.83;;
5951;SDS011;3001;42.622;23.194;2022-11-23T11:58:01;0.60;;;0.60;;
5951;SDS011;3001;42.622;23.194;2022-11-23T12:00:32;1.33;;;0.50;;
5951;SDS011;3001;42.622;23.194;2022-11-23T12:03:05;1.07;;;0.40;;
5951;SDS011;3001;42.622;23.194;2022-11-23T12:05:43;0.70;;;0.70;;
5951;SDS011;3001;42.622;23.194;2022-11-23T12:08:15;1.10;;;1.10;;
5951;SDS011;3001;42.622;23.194;2022-11-23T12:10:47;1.13;;;0.57;;
5951;SDS011;3001;42.622;23.194;2022-11-23T12:13:18;2.03;;;0.87;;
5951;SDS011;3001;42.622;23.194;2022-11-23T12:15:47;3.50;;;1.43;;
5951;SDS011;3001;42.622;23.194;2022-11-23T12:18:41;1.80;;;1.00;;
5951;SDS011;3001;42.622;23.194;2022-11-23T12:21:31;0.93;;;0.57;;
5951;SDS011;3001;42.622;23.194;2022-11-23T12:24:09;1.17;;;0.70;;
5951;SDS011;3001;42.622;23.194;2022-11-23T12:26:47;0.60;;;0.60;;
5951;SDS011;3001;42.622;23.194;2022-11-23T12:29:30;1.93;;;0.60;;
5951;SDS011;3001;42.622;23.194;2022-11-23T12:32:08;0.67;;;0.67;;
5951;SDS011;3001;42.622;23.194;2022-11-23T12:34:53;0.70;;;0.70;;
5951;SDS011;3001;42.622;23.194;2022-11-23T12:37:40;5.33;;;4.80;;
5951;SDS011;3001;42.622;23.194;2022-11-23T12:43:11;0.73;;;0.73;;
5951;SDS011;3001;42.622;23.194;2022-11-23T12:45:44;0.90;;;0.50;;
5951;SDS011;3001;42.622;23.194;2022-11-23T12:48:36;1.07;;;1.07;;
5951;SDS011;3001;42.622;23.194;2022-11-23T12:51:30;2.30;;;2.20;;
5951;SDS011;3001;42.622;23.194;2022-11-23T12:54:18;1.30;;;1.30;;
5951;SDS011;3001;42.622;23.194;2022-11-23T12:57:02;0.40;;;0.40;;
5951;SDS011;3001;42.622;23.194;2022-11-23T12:59:38;1.93;;;1.50;;
5951;SDS011;3001;42.622;23.194;2022-11-23T13:02:13;0.73;;;0.73;;
5951;SDS011;3001;42.622;23.194;2022-11-23T13:04:59;6.20;;;3.27;;
5951;SDS011;3001;42.622;23.194;2022-11-23T13:08:12;37.00;;;21.67;;
5951;SDS011;3001;42.622;23.194;2022-11-23T13:11:06;2.07;;;1.70;;
5951;SDS011;3001;42.622;23.194;2022-11-23T13:13:51;3.90;;;3.50;;
5951;SDS011;3001;42.622;23.194;2022-11-23T13:16:36;4.53;;;3.00;;
5951;SDS011;3001;42.622;23.194;2022-11-23T13:19:24;7.73;;;6.30;;
5951;SDS011;3001;42.622;23.194;2022-11-23T13:21:59;3.37;;;2.53;;
5951;SDS011;3001;42.622;23.194;2022-11-23T13:24:32;2.90;;;1.83;;
5951;SDS011;3001;42.622;23.194;2022-11-23T13:29:56;15.50;;;2.30;;
5951;SDS011;3001;42.622;23.194;2022-11-23T13:32:40;3.60;;;1.40;;
5951;SDS011;3001;42.622;23.194;2022-11-23T13:38:17;3.80;;;2.43;;
5951;SDS011;3001;42.622;23.194;2022-11-23T13:40:50;12.03;;;6.97;;
5951;SDS011;3001;42.622;23.194;2022-11-23T13:43:18;5.07;;;3.67;;
5951;SDS011;3001;42.622;23.194;2022-11-23T13:48:40;13.40;;;9.67;;
5951;SDS011;3001;42.622;23.194;2022-11-23T13:51:08;3.37;;;3.17;;
5951;SDS011;3001;42.622;23.194;2022-11-23T13:53:36;2.77;;;1.87;;
5951;SDS011;3001;42.622;23.194;2022-11-23T13:56:19;2.50;;;1.40;;
5951;SDS011;3001;42.622;23.194;2022-11-23T13:58:52;0.90;;;0.90;;
5951;SDS011;3001;42.622;23.194;2022-11-23T14:04:23;1.70;;;1.57;;
5951;SDS011;3001;42.622;23.194;2022-11-23T14:06:51;2.33;;;2.23;;
5951;SDS011;3001;42.622;23.194;2022-11-23T14:09:23;1.90;;;1.80;;
5951;SDS011;3001;42.622;23.194;2022-11-23T14:11:59;2.60;;;2.40;;
5951;SDS011;3001;42.622;23.194;2022-11-23T14:14:32;0.87;;;0.60;;
5951;SDS011;3001;42.622;23.194;2022-11-23T14:17:17;2.40;;;0.80;;
5951;SDS011;3001;42.622;23.194;2022-11-23T14:20:12;0.60;;;0.60;;
5951;SDS011;3001;42.622;23.194;2022-11-23T14:22:50;1.37;;;1.37;;
5951;SDS011;3001;42.622;23.194;2022-11-23T14:25:32;3.17;;;0.87;;
5951;SDS011;3001;42.622;23.194;2022-11-23T14:28:11;1.93;;;0.80;;
5951;SDS011;3001;42.622;23.194;2022-11-23T14:30:54;0.50;;;0.50;;
5951;SDS011;3001;42.622;23.194;2022-11-23T14:33:33;0.40;;;0.40;;
5951;SDS011;3001;42.622;23.194;2022-11-23T14:36:08;1.10;;;1.10;;
5951;SDS011;3001;42.622;23.194;2022-11-23T14:41:35;3.80;;;2.60;;
5951;SDS011;3001;42.622;23.194;2022-11-23T14:44:08;2.20;;;1.30;;
5951;SDS011;3001;42.622;23.194;2022-11-23T14:49:29;1.53;;;1.03;;
5951;SDS011;3001;42.622;23.194;2022-11-23T14:51:56;1.20;;;1.20;;
5951;SDS011;3001;42.622;23.194;2022-11-23T14:54:23;0.90;;;0.70;;
5951;SDS011;3001;42.622;23.194;2022-11-23T14:56:51;2.33;;;0.83;;
5951;SDS011;3001;42.622;23.194;2022-11-23T14:59:22;1.83;;;1.17;;
5951;SDS011;3001;42.622;23.194;2022-11-23T15:01:52;2.07;;;1.90;;
5951;SDS011;3001;42.622;23.194;2022-11-23T15:04:22;2.10;;;0.90;;
5951;SDS011;3001;42.622;23.194;2022-11-23T15:06:52;7.37;;;5.03;;
5951;SDS011;3001;42.622;23.194;2022-11-23T15:09:27;5.13;;;3.27;;
5951;SDS011;3001;42.622;23.194;2022-11-23T15:12:04;1.93;;;1.57;;
5951;SDS011;3001;42.622;23.194;2022-11-23T15:14:34;5.07;;;2.33;;
5951;SDS011;3001;42.622;23.194;2022-11-23T15:17:13;3.43;;;3.10;;
5951;SDS011;3001;42.622;23.194;2022-11-23T15:19:40;0.80;;;0.80;;
5951;SDS011;3001;42.622;23.194;2022-11-23T15:22:14;2.30;;;1.00;;
5951;SDS011;3001;42.622;23.194;2022-11-23T15:24:44;1.30;;;0.90;;
5951;SDS011;3001;42.622;23.194;2022-11-23T15:27:12;2.53;;;0.90;;
5951;SDS011;3001;42.622;23.194;2022-11-23T15:29:51;2.33;;;0.97;;
5951;SDS011;3001;42.622;23.194;2022-11-23T15:32:20;1.47;;;0.50;;
5951;SDS011;3001;42.622;23.194;2022-11-23T15:34:49;1.10;;;0.80;;
5951;SDS011;3001;42.622;23.194;2022-11-23T15:37:18;2.07;;;0.70;;
5951;SDS011;3001;42.622;23.194;2022-11-23T15:39:45;1.90;;;0.70;;
5951;SDS011;3001;42.622;23.194;2022-11-23T15:42:14;0.60;;;0.60;;